createdAt,value
2022-12-11T00:00:31.692Z,-3276.30
2022-12-11T00:03:01.236Z,-3276.20
2022-12-11T00:05:29.418Z,-3276.20
2022-12-11T00:07:57.591Z,-3276.30
2022-12-11T00:10:26.013Z,-3276.30
2022-12-11T00:12:54.218Z,-3276.40
2022-12-11T00:15:22.343Z,-3276.30
2022-12-11T00:17:51.863Z,-3276.50
2022-12-11T00:20:22.251Z,-3276.50
2022-12-11T00:22:52.847Z,-3276.50
2022-12-11T00:25:22.527Z,-3276.50
2022-12-11T00:27:51.066Z,-3276.40
2022-12-11T00:30:21.403Z,-3276.40
2022-12-11T00:32:51.815Z,-3276.40
2022-12-11T00:35:21.867Z,-3276.30
2022-12-11T00:37:50.058Z,-3276.20
2022-12-11T00:40:19.595Z,-3276.20
2022-12-11T00:42:48.018Z,-3276.20
2022-12-11T00:45:19.078Z,-3276.30
2022-12-11T00:47:50.188Z,-3276.30
2022-12-11T00:50:18.514Z,-3276.30
2022-12-11T00:52:50.644Z,-3276.40
2022-12-11T00:55:20.306Z,-3276.50
2022-12-11T00:57:52.774Z,-3276.30
2022-12-11T01:00:23.111Z,-3276.10
2022-12-11T01:02:52.643Z,-3276.20
2022-12-11T01:05:21.602Z,-3276.20
2022-12-11T01:07:51.851Z,-3276.10
2022-12-11T01:10:28.906Z,-3276.10
2022-12-11T01:12:59.294Z,-3276.20
2022-12-11T01:15:30.156Z,-3276.30
2022-12-11T01:17:59.725Z,-3276.20
2022-12-11T01:20:29.712Z,-3276.20
2022-12-11T01:23:03.780Z,-3276.20
2022-12-11T01:25:33.525Z,-3276.30
2022-12-11T01:28:02.806Z,-3276.40
2022-12-11T01:30:31.579Z,-3276.40
2022-12-11T01:33:00.873Z,-3276.40
2022-12-11T01:35:30.458Z,-3276.30
2022-12-11T01:38:00.431Z,-3276.40
2022-12-11T01:40:28.574Z,-3276.30
2022-12-11T01:42:56.702Z,-3276.30
2022-12-11T01:45:36.563Z,-3276.30
2022-12-11T01:48:09.524Z,-3276.20
2022-12-11T01:50:42.302Z,-3276.20
2022-12-11T01:53:17.561Z,-3276.30
2022-12-11T01:55:47.579Z,-3276.30
2022-12-11T01:58:17.527Z,-3276.30
2022-12-11T02:00:45.647Z,-3276.30
2022-12-11T02:03:13.821Z,-3276.20
2022-12-11T02:05:42.053Z,-3276.30
2022-12-11T02:08:11.977Z,-3276.20
2022-12-11T02:10:59.803Z,-3276.10
2022-12-11T02:13:33.615Z,-3276.10
2022-12-11T02:16:10.046Z,-3276.20
2022-12-11T02:18:42.165Z,-3276.10
2022-12-11T02:21:14.306Z,-3276.20
2022-12-11T02:24:08.234Z,-3276.30
2022-12-11T02:26:53.497Z,-3276.30
2022-12-11T02:29:27.300Z,-3276.30
2022-12-11T02:32:00.110Z,-3276.30
2022-12-11T02:34:35.095Z,-3276.30
2022-12-11T02:37:07.375Z,-3276.30
2022-12-11T02:39:39.378Z,-3276.30
2022-12-11T02:42:09.319Z,-3276.40
2022-12-11T02:44:41.183Z,-3276.40
2022-12-11T02:47:13.563Z,-3276.30
2022-12-11T02:49:44.401Z,-3276.20
2022-12-11T02:52:15.696Z,-3276.20
2022-12-11T02:54:45.816Z,-3276.40
2022-12-11T02:57:17.556Z,-3276.40
2022-12-11T02:59:47.906Z,-3276.50
2022-12-11T03:02:18.870Z,-3276.50
2022-12-11T03:04:48.111Z,-3276.40
2022-12-11T03:07:20.477Z,-3276.60
2022-12-11T03:09:49.432Z,-3276.60
2022-12-11T03:12:21.435Z,-3276.70
2022-12-11T03:14:51.353Z,-3276.70
2022-12-11T03:17:22.376Z,0.00
2022-12-11T03:19:56.637Z,0.00
2022-12-11T03:22:34.135Z,0.00
2022-12-11T03:25:05.383Z,0.00
2022-12-11T03:27:40.343Z,0.00
2022-12-11T03:30:13.999Z,0.00
2022-12-11T03:32:47.609Z,0.00
2022-12-11T03:35:21.601Z,-3276.70
2022-12-11T03:37:51.837Z,-3276.70
2022-12-11T03:40:22.638Z,-3276.70
2022-12-11T03:42:54.663Z,-3276.70
2022-12-11T03:45:26.019Z,-3276.60
2022-12-11T03:47:56.296Z,-3276.50
2022-12-11T03:50:28.340Z,-3276.50
2022-12-11T03:52:56.886Z,-3276.50
2022-12-11T03:55:26.262Z,-3276.60
2022-12-11T03:57:54.387Z,-3276.70
2022-12-11T04:00:24.300Z,-3276.60
2022-12-11T04:03:12.756Z,-3276.60
2022-12-11T04:05:41.901Z,-3276.50
2022-12-11T04:08:10.184Z,-3276.60
2022-12-11T04:10:38.396Z,-3276.60
2022-12-11T04:13:06.570Z,-3276.60
2022-12-11T04:15:35.256Z,-3276.70
2022-12-11T04:18:21.314Z,-3276.70
2022-12-11T04:21:06.419Z,-3276.70
2022-12-11T04:23:51.940Z,-3276.60
2022-12-11T04:26:21.682Z,-3276.60
2022-12-11T04:28:50.572Z,-3276.60
2022-12-11T04:31:22.117Z,-3276.70
2022-12-11T04:33:50.805Z,-3276.70
2022-12-11T04:36:19.155Z,-3276.60
2022-12-11T04:38:47.319Z,-3276.50
2022-12-11T04:41:16.941Z,-3276.50
2022-12-11T04:43:46.214Z,-3276.40
2022-12-11T04:46:15.870Z,-3276.30
2022-12-11T04:48:46.339Z,-3276.20
2022-12-11T04:51:15.379Z,-3276.20
2022-12-11T04:53:44.008Z,-3276.20
2022-12-11T04:56:15.517Z,-3276.20
2022-12-11T04:58:44.927Z,-3276.20
2022-12-11T05:01:15.219Z,-3276.20
2022-12-11T05:03:43.877Z,-3276.00
2022-12-11T05:06:14.340Z,-3276.00
2022-12-11T05:08:44.023Z,-3275.90
2022-12-11T05:11:14.825Z,-3275.90
2022-12-11T05:13:44.232Z,-3275.80
2022-12-11T05:16:14.920Z,-3275.70
2022-12-11T05:18:43.403Z,-3275.70
2022-12-11T05:21:15.051Z,-3275.70
2022-12-11T05:23:43.778Z,-3275.70
2022-12-11T05:26:15.163Z,-3275.60
2022-12-11T05:28:44.411Z,-3275.70
2022-12-11T05:31:15.519Z,-3275.60
2022-12-11T05:33:43.861Z,-3275.60
2022-12-11T05:36:18.337Z,-3275.60
2022-12-11T05:38:46.652Z,-3275.60
2022-12-11T05:41:16.602Z,-3275.60
2022-12-11T05:43:44.809Z,-3275.50
2022-12-11T05:46:14.679Z,-3275.50
2022-12-11T05:48:44.078Z,-3275.50
2022-12-11T05:51:13.399Z,-3275.50
2022-12-11T05:53:43.913Z,-3275.30
2022-12-11T05:56:14.264Z,-3275.20
2022-12-11T05:58:43.980Z,-3275.20
2022-12-11T06:01:13.756Z,-3275.20
2022-12-11T06:03:41.935Z,-3275.10
2022-12-11T06:06:10.322Z,-3275.10
2022-12-11T06:08:38.736Z,-3275.10
2022-12-11T06:11:08.441Z,-3275.10
2022-12-11T06:13:36.985Z,-3275.10
2022-12-11T06:16:07.553Z,-3275.00
2022-12-11T06:18:38.030Z,-3274.80
2022-12-11T06:21:14.185Z,-3274.70
2022-12-11T06:23:43.111Z,-3274.60
2022-12-11T06:26:12.994Z,-3274.70
2022-12-11T06:28:41.311Z,-3274.60
2022-12-11T06:31:09.768Z,-3274.60
2022-12-11T06:33:38.332Z,-3274.60
2022-12-11T06:36:08.238Z,-3274.50
2022-12-11T06:38:36.833Z,-3274.50
2022-12-11T06:41:06.280Z,-3274.50
2022-12-11T06:43:36.814Z,-3274.40
2022-12-11T06:46:06.301Z,-3274.30
2022-12-11T06:48:35.257Z,-3274.30
2022-12-11T06:51:07.766Z,-3274.40
2022-12-11T06:53:36.232Z,-3274.30
2022-12-11T06:56:05.512Z,-3274.40
2022-12-11T06:58:36.623Z,-3274.30
2022-12-11T07:01:05.810Z,-3274.20
2022-12-11T07:03:34.671Z,-3274.30
2022-12-11T07:06:03.226Z,-3274.20
2022-12-11T07:08:32.083Z,-3274.20
2022-12-11T07:11:05.115Z,-3274.20
2022-12-11T07:13:33.786Z,-3274.20
2022-12-11T07:16:04.761Z,-3274.20
2022-12-11T07:18:33.296Z,-3274.20
2022-12-11T07:21:01.466Z,-3274.30
2022-12-11T07:23:30.055Z,-3274.40
2022-12-11T07:25:58.759Z,-3274.40
2022-12-11T07:28:27.237Z,-3274.40
2022-12-11T07:30:55.347Z,-3274.40
2022-12-11T07:33:24.865Z,-3274.30
2022-12-11T07:35:53.011Z,-3274.30
2022-12-11T07:38:21.441Z,-3274.30
2022-12-11T07:40:49.561Z,-3274.20
2022-12-11T07:43:17.679Z,-3274.30
2022-12-11T07:45:45.859Z,-3274.10
2022-12-11T07:48:14.438Z,-3274.10
2022-12-11T07:50:43.958Z,-3274.00
2022-12-11T07:53:12.239Z,-3274.00
2022-12-11T07:55:40.354Z,-3274.00
2022-12-11T07:58:08.504Z,-3274.10
2022-12-11T08:00:36.638Z,-3274.00
2022-12-11T08:03:05.042Z,-3274.20
2022-12-11T08:05:33.122Z,-3274.30
2022-12-11T08:08:02.771Z,-3274.20
2022-12-11T08:10:30.950Z,-3274.30
2022-12-11T08:12:59.085Z,-3274.30
2022-12-11T08:15:27.330Z,-3274.40
2022-12-11T08:17:55.409Z,-3274.40
2022-12-11T08:20:23.505Z,-3274.50
2022-12-11T08:22:56.011Z,-3274.50
2022-12-11T08:25:28.445Z,-3274.20
2022-12-11T08:27:56.566Z,-3274.30
2022-12-11T08:30:24.976Z,-3274.50
2022-12-11T08:32:53.282Z,-3274.50
2022-12-11T08:35:21.690Z,-3274.40
2022-12-11T08:37:49.939Z,-3274.30
2022-12-11T08:40:18.187Z,-3274.30
2022-12-11T08:42:47.755Z,-3274.20
2022-12-11T08:45:16.045Z,-3274.30
2022-12-11T08:47:44.198Z,-3274.30
2022-12-11T08:50:12.432Z,-3274.30
2022-12-11T08:52:40.626Z,-3274.50
2022-12-11T08:55:10.099Z,-3274.70
2022-12-11T08:57:39.883Z,-3274.80
2022-12-11T09:00:12.599Z,-3274.90
2022-12-11T09:02:41.005Z,-3275.10
2022-12-11T09:05:10.372Z,-3275.20
2022-12-11T09:07:39.451Z,-3275.30
2022-12-11T09:10:10.132Z,-3275.40
2022-12-11T09:12:38.972Z,-3275.50
2022-12-11T09:15:09.592Z,-3275.50
2022-12-11T09:17:37.998Z,-3275.50
2022-12-11T09:20:07.226Z,-3275.60
2022-12-11T09:22:35.598Z,-3275.60
2022-12-11T09:25:03.747Z,-3275.60
2022-12-11T09:27:31.904Z,-3275.70
2022-12-11T09:30:00.050Z,-3275.70
2022-12-11T09:32:30.448Z,-3275.80
2022-12-11T09:34:58.547Z,-3275.80
2022-12-11T09:37:26.749Z,-3275.80
2022-12-11T09:39:54.893Z,-3275.80
2022-12-11T09:42:32.128Z,-3275.90
2022-12-11T09:45:04.546Z,-3275.90
2022-12-11T09:47:37.811Z,-3275.90
2022-12-11T09:50:13.999Z,-3275.90
2022-12-11T09:52:48.549Z,-3275.90
2022-12-11T09:55:19.619Z,-3276.00
2022-12-11T09:57:58.517Z,-3276.00
2022-12-11T10:00:31.742Z,-3276.10
2022-12-11T10:03:22.083Z,-3276.30
2022-12-11T10:05:59.671Z,-3276.40
2022-12-11T10:08:39.041Z,-3276.50
2022-12-11T10:11:28.094Z,-3276.70
2022-12-11T10:14:04.189Z,-3276.70
2022-12-11T10:16:37.987Z,0.00
2022-12-11T10:19:11.472Z,0.00
2022-12-11T10:21:41.253Z,0.00
2022-12-11T10:24:29.359Z,0.00
2022-12-11T10:27:16.242Z,-3276.70
2022-12-11T10:29:44.529Z,0.00
2022-12-11T10:32:21.256Z,0.00
2022-12-11T10:34:55.615Z,0.10
2022-12-11T10:37:24.350Z,0.00
2022-12-11T10:39:53.781Z,-3276.70
2022-12-11T10:42:23.950Z,0.00
2022-12-11T10:45:00.501Z,0.00
2022-12-11T10:47:29.459Z,0.10
2022-12-11T10:50:00.353Z,0.20
2022-12-11T10:52:32.650Z,0.20
2022-12-11T10:55:03.320Z,0.20
2022-12-11T10:57:33.807Z,0.30
2022-12-11T11:00:04.696Z,0.10
2022-12-11T11:02:35.895Z,0.20
2022-12-11T11:05:16.847Z,0.30
2022-12-11T11:07:45.453Z,0.30
2022-12-11T11:10:18.986Z,0.40
2022-12-11T11:12:49.393Z,0.40
2022-12-11T11:15:20.533Z,0.40
2022-12-11T11:17:55.459Z,0.30
2022-12-11T11:20:27.783Z,0.20
2022-12-11T11:22:58.156Z,0.30
2022-12-11T11:25:28.701Z,0.40
2022-12-11T11:27:58.812Z,0.40
2022-12-11T11:30:28.778Z,0.50
2022-12-11T11:33:00.831Z,0.50
2022-12-11T11:35:32.370Z,0.80
2022-12-11T11:38:07.008Z,0.90
2022-12-11T11:40:42.794Z,0.90
2022-12-11T11:43:23.087Z,0.90
2022-12-11T11:45:57.740Z,0.90
2022-12-11T11:48:37.666Z,1.00
2022-12-11T11:51:15.238Z,1.00
2022-12-11T11:53:49.515Z,1.10
2022-12-11T11:56:23.752Z,1.10
2022-12-11T11:58:59.608Z,1.10
2022-12-11T12:01:28.312Z,1.20
2022-12-11T12:03:57.574Z,1.40
2022-12-11T12:06:48.989Z,1.40
2022-12-11T12:09:30.825Z,1.60
2022-12-11T12:12:24.735Z,1.40
2022-12-11T12:15:09.462Z,1.10
2022-12-11T12:17:55.195Z,1.00
2022-12-11T12:20:32.580Z,1.00
2022-12-11T12:23:22.936Z,1.00
2022-12-11T12:25:59.035Z,0.90
2022-12-11T12:28:36.005Z,0.70
2022-12-11T12:31:16.283Z,0.80
2022-12-11T12:33:59.607Z,0.90
2022-12-11T12:36:34.531Z,1.20
2022-12-11T12:42:07.545Z,1.60
2022-12-11T12:44:43.041Z,1.70
2022-12-11T12:47:14.789Z,1.70
2022-12-11T12:49:48.631Z,1.50
2022-12-11T12:52:20.688Z,1.60
2022-12-11T12:55:07.717Z,1.80
2022-12-11T12:57:38.369Z,1.80
2022-12-11T13:00:13.242Z,1.70
2022-12-11T13:02:51.168Z,1.80
2022-12-11T13:05:24.925Z,1.80
2022-12-11T13:07:56.385Z,1.40
2022-12-11T13:10:29.836Z,1.40
2022-12-11T13:12:58.736Z,1.30
2022-12-11T13:15:34.803Z,1.30
2022-12-11T13:18:07.564Z,1.30
2022-12-11T13:20:47.507Z,1.20
2022-12-11T13:23:27.879Z,1.00
2022-12-11T13:25:58.947Z,0.70
2022-12-11T13:28:33.438Z,0.40
2022-12-11T13:31:08.372Z,0.20
2022-12-11T13:33:43.937Z,0.20
2022-12-11T13:36:37.823Z,0.20
2022-12-11T13:39:10.916Z,0.10
2022-12-11T13:41:41.534Z,0.00
2022-12-11T13:44:17.153Z,0.00
2022-12-11T13:46:45.435Z,-3276.70
2022-12-11T13:49:23.034Z,0.00
2022-12-11T13:51:56.239Z,-3276.60
2022-12-11T13:54:24.936Z,-3276.70
2022-12-11T13:57:00.598Z,-3276.60
2022-12-11T13:59:32.810Z,-3276.70
2022-12-11T14:02:06.231Z,-3276.60
2022-12-11T14:04:36.255Z,-3276.60
2022-12-11T14:07:08.681Z,-3276.50
2022-12-11T14:09:43.513Z,-3276.50
2022-12-11T14:12:18.555Z,-3276.70
2022-12-11T14:14:51.606Z,0.00
2022-12-11T14:17:26.624Z,0.10
2022-12-11T14:19:55.746Z,0.00
2022-12-11T14:22:25.711Z,0.00
2022-12-11T14:24:56.389Z,0.00
2022-12-11T14:27:27.446Z,0.00
2022-12-11T14:29:56.242Z,0.00
2022-12-11T14:32:32.399Z,-3276.70
2022-12-11T14:35:03.522Z,-3276.70
2022-12-11T14:37:32.468Z,-3276.70
2022-12-11T14:40:03.168Z,-3276.70
2022-12-11T14:42:38.212Z,-3276.70
2022-12-11T14:45:11.752Z,0.00
2022-12-11T14:47:44.141Z,0.00
2022-12-11T14:50:19.146Z,0.00
2022-12-11T14:52:50.055Z,0.00
2022-12-11T14:55:21.121Z,0.00
2022-12-11T14:57:53.304Z,-3276.70
2022-12-11T15:00:26.472Z,-3276.60
2022-12-11T15:03:03.392Z,-3276.50
2022-12-11T15:05:38.869Z,-3276.40
2022-12-11T15:08:25.509Z,-3276.30
2022-12-11T15:11:05.862Z,-3276.30
2022-12-11T15:13:37.321Z,-3276.10
2022-12-11T15:16:08.495Z,-3276.00
2022-12-11T15:18:39.648Z,-3275.80
2022-12-11T15:21:10.018Z,-3275.80
2022-12-11T15:23:51.393Z,-3275.70
2022-12-11T15:26:19.826Z,-3275.70
2022-12-11T15:28:49.399Z,-3275.70
2022-12-11T15:31:28.558Z,-3275.70
2022-12-11T15:33:57.132Z,-3275.60
2022-12-11T15:36:29.535Z,-3275.40
2022-12-11T15:38:58.001Z,-3275.30
2022-12-11T15:41:26.848Z,-3275.30
2022-12-11T15:43:59.812Z,-3275.10
2022-12-11T15:46:28.066Z,-3275.00
2022-12-11T15:48:57.927Z,-3274.90
2022-12-11T15:51:27.549Z,-3274.80
2022-12-11T15:53:55.756Z,-3274.80
2022-12-11T15:56:23.939Z,-3274.60
2022-12-11T15:58:52.326Z,-3274.50
2022-12-11T16:01:21.850Z,-3274.50
2022-12-11T16:03:50.445Z,-3274.50
2022-12-11T16:06:18.542Z,-3274.40
2022-12-11T16:08:46.679Z,-3274.30
2022-12-11T16:11:15.312Z,-3274.30
2022-12-11T16:13:43.497Z,-3274.30
2022-12-11T16:16:11.719Z,-3274.20
2022-12-11T16:18:41.335Z,-3274.00
2022-12-11T16:21:09.464Z,-3274.00
2022-12-11T16:23:37.900Z,-3274.10
2022-12-11T16:26:10.072Z,-3274.20
2022-12-11T16:28:38.511Z,-3274.20
2022-12-11T16:31:11.965Z,-3274.00
2022-12-11T16:33:41.640Z,-3274.00
2022-12-11T16:36:18.060Z,-3274.00
2022-12-11T16:38:52.902Z,-3273.90
2022-12-11T16:41:22.964Z,-3273.90
2022-12-11T16:43:51.697Z,-3273.80
2022-12-11T16:46:21.113Z,-3273.80
2022-12-11T16:48:51.127Z,-3273.80
2022-12-11T16:51:19.358Z,-3273.80
2022-12-11T16:53:47.601Z,-3273.80
2022-12-11T16:56:15.928Z,-3273.60
2022-12-11T16:58:44.559Z,-3273.50
2022-12-11T17:01:14.750Z,-3273.50
2022-12-11T17:03:44.604Z,-3273.40
2022-12-11T17:06:17.137Z,-3273.50
2022-12-11T17:08:46.135Z,-3273.50
2022-12-11T17:11:17.265Z,-3273.50
2022-12-11T17:13:54.256Z,-3273.40
2022-12-11T17:22:37.974Z,-3273.40
2022-12-11T17:25:16.351Z,-3273.30
2022-12-11T17:27:44.914Z,-3273.40
2022-12-11T17:30:14.336Z,-3273.30
2022-12-11T17:32:42.778Z,-3273.30
2022-12-11T17:35:12.150Z,-3273.30
2022-12-11T17:37:42.070Z,-3273.20
2022-12-11T17:40:11.128Z,-3273.20
2022-12-11T17:42:39.263Z,-3273.00
2022-12-11T17:45:08.522Z,-3273.00
2022-12-11T17:47:36.798Z,-3273.00
2022-12-11T17:50:05.399Z,-3273.00
2022-12-11T17:52:35.631Z,-3273.00
2022-12-11T17:55:07.890Z,-3273.10
2022-12-11T17:57:37.943Z,-3273.10
2022-12-11T18:00:07.916Z,-3273.20
2022-12-11T18:02:36.080Z,-3273.20
2022-12-11T18:05:04.359Z,-3273.30
2022-12-11T18:07:32.456Z,-3273.30
2022-12-11T18:10:00.759Z,-3273.30
2022-12-11T18:12:31.058Z,-3273.30
2022-12-11T18:15:01.607Z,-3273.30
2022-12-11T18:17:29.793Z,-3273.30
2022-12-11T18:19:57.946Z,-3273.40
2022-12-11T18:22:26.113Z,-3273.40
2022-12-11T18:24:54.653Z,-3273.50
2022-12-11T18:27:22.964Z,-3273.50
2022-12-11T18:29:52.481Z,-3273.50
2022-12-11T18:32:20.710Z,-3273.40
2022-12-11T18:34:48.977Z,-3273.40
2022-12-11T18:37:17.111Z,-3273.40
2022-12-11T18:39:45.315Z,-3273.30
2022-12-11T18:45:03.101Z,-3273.30
2022-12-11T18:47:31.738Z,-3273.20
2022-12-11T18:50:04.083Z,-3273.20
2022-12-11T18:52:35.986Z,-3273.10
2022-12-11T18:55:04.201Z,-3273.10
2022-12-11T18:57:32.518Z,-3273.10
2022-12-11T19:00:07.540Z,-3273.10
2022-12-11T19:02:36.044Z,-3273.00
2022-12-11T19:05:05.323Z,-3273.10
2022-12-11T19:07:33.511Z,-3273.10
2022-12-11T19:10:01.788Z,-3273.20
2022-12-11T19:12:29.980Z,-3273.10
2022-12-11T19:14:58.116Z,-3273.10
2022-12-11T19:17:27.610Z,-3273.10
2022-12-11T19:19:55.792Z,-3273.00
2022-12-11T19:22:23.923Z,-3272.90
2022-12-11T19:24:52.146Z,-3272.90
2022-12-11T19:27:20.361Z,-3273.00
2022-12-11T19:29:48.525Z,-3273.00
2022-12-11T19:32:16.704Z,-3273.00
2022-12-11T19:34:46.266Z,-3273.00
2022-12-11T19:37:14.492Z,-3272.90
2022-12-11T19:39:42.713Z,-3272.90
2022-12-11T19:42:10.837Z,-3273.00
2022-12-11T19:44:39.028Z,-3273.00
2022-12-11T19:47:07.201Z,-3273.00
2022-12-11T19:49:35.499Z,-3273.00
2022-12-11T19:52:05.664Z,-3273.00
2022-12-11T19:54:33.928Z,-3273.10
2022-12-11T19:57:02.091Z,-3273.10
2022-12-11T19:59:30.290Z,-3273.10
2022-12-11T20:01:58.481Z,-3273.10
2022-12-11T20:04:26.706Z,-3273.00
2022-12-11T20:06:54.923Z,-3273.10
2022-12-11T20:09:25.361Z,-3273.10
2022-12-11T20:11:53.494Z,-3273.00
2022-12-11T20:14:23.923Z,-3273.00
2022-12-11T20:17:10.963Z,-3273.00
2022-12-11T20:19:40.906Z,-3273.00
2022-12-11T20:22:09.377Z,-3272.90
2022-12-11T20:24:39.067Z,-3272.80
2022-12-11T20:27:07.348Z,-3272.80
2022-12-11T20:29:35.677Z,-3272.80
2022-12-11T20:32:03.939Z,-3272.80
2022-12-11T20:34:32.225Z,-3272.80
2022-12-11T20:37:03.044Z,-3272.80
2022-12-11T20:39:32.130Z,-3272.80
2022-12-11T20:42:04.933Z,-3272.80
2022-12-11T20:44:33.407Z,-3272.80
2022-12-11T20:47:01.522Z,-3272.80
2022-12-11T20:49:29.750Z,-3272.80
2022-12-11T20:51:57.923Z,-3272.70
2022-12-11T20:54:26.052Z,-3272.80
2022-12-11T20:56:54.254Z,-3272.70
2022-12-11T20:59:26.093Z,-3272.70
2022-12-11T21:01:57.446Z,-3272.70
2022-12-11T21:04:26.010Z,-3272.70
2022-12-11T21:06:56.254Z,-3272.70
2022-12-11T21:09:26.756Z,-3272.60
2022-12-11T21:11:55.023Z,-3272.50
2022-12-11T21:14:24.665Z,-3272.50
2022-12-11T21:16:52.825Z,-3272.40
2022-12-11T21:19:21.617Z,-3272.30
2022-12-11T21:21:50.671Z,-3272.30
2022-12-11T21:24:21.402Z,-3272.30
2022-12-11T21:26:50.483Z,-3272.20
2022-12-11T21:29:18.650Z,-3272.10
2022-12-11T21:31:48.758Z,-3272.20
2022-12-11T21:34:22.037Z,-3272.20
2022-12-11T21:36:56.472Z,-3272.20
2022-12-11T21:39:25.046Z,-3272.20
2022-12-11T21:41:53.281Z,-3272.10
2022-12-11T21:47:11.504Z,-3272.10
2022-12-11T21:49:39.653Z,-3272.10
2022-12-11T21:52:13.971Z,-3272.10
2022-12-11T21:54:42.629Z,-3272.20
2022-12-11T21:57:10.785Z,-3272.30
2022-12-11T21:59:38.975Z,-3272.30
2022-12-11T22:02:07.304Z,-3272.30
2022-12-11T22:04:37.485Z,-3272.30
2022-12-11T22:07:05.740Z,-3272.30
2022-12-11T22:09:36.567Z,-3272.30
2022-12-11T22:12:05.277Z,-3272.20
2022-12-11T22:14:34.735Z,-3272.20
2022-12-11T22:17:03.303Z,-3272.20
2022-12-11T22:19:32.858Z,-3272.20
2022-12-11T22:22:02.562Z,-3272.00
2022-12-11T22:24:31.599Z,-3272.00
2022-12-11T22:26:59.837Z,-3272.00
2022-12-11T22:29:28.057Z,-3272.00
2022-12-11T22:31:56.299Z,-3271.70
2022-12-11T22:34:24.510Z,-3271.80
2022-12-11T22:36:52.729Z,-3271.90
2022-12-11T22:39:22.358Z,-3271.90
2022-12-11T22:41:50.513Z,-3272.00
2022-12-11T22:44:20.462Z,-3272.10
2022-12-11T22:46:50.541Z,-3272.10
2022-12-11T22:49:19.229Z,-3272.10
2022-12-11T22:51:47.511Z,-3272.10
2022-12-11T22:54:15.735Z,-3272.10
2022-12-11T22:56:45.308Z,-3272.00
2022-12-11T22:59:13.526Z,-3272.00
2022-12-11T23:01:41.689Z,-3272.00
2022-12-11T23:04:09.883Z,-3272.00
2022-12-11T23:06:38.791Z,-3272.00
2022-12-11T23:09:07.263Z,-3272.00
2022-12-11T23:11:37.638Z,-3272.10
2022-12-11T23:14:09.426Z,-3272.10
2022-12-11T23:16:37.977Z,-3272.10
2022-12-11T23:19:06.250Z,-3272.10
2022-12-11T23:21:35.101Z,-3272.10
2022-12-11T23:24:04.083Z,-3272.00
2022-12-11T23:26:33.021Z,-3272.00
2022-12-11T23:29:01.615Z,-3272.00
2022-12-11T23:31:31.349Z,-3272.00
2022-12-11T23:34:00.169Z,-3272.00
2022-12-11T23:36:29.878Z,-3272.00
2022-12-11T23:38:58.160Z,-3272.00
2022-12-11T23:41:26.507Z,-3272.00
2022-12-11T23:43:54.831Z,-3272.00
2022-12-11T23:46:25.364Z,-3271.80
2022-12-11T23:48:55.945Z,-3271.70
2022-12-11T23:51:26.170Z,-3271.70
2022-12-11T23:53:54.763Z,-3271.70
2022-12-11T23:56:25.461Z,-3271.80
2022-12-11T23:58:54.157Z,-3271.80
